createdAt,value
2017-03-09T00:00:19.319Z,0
2017-03-09T00:01:28.299Z,0
2017-03-09T00:02:37.299Z,0
2017-03-09T00:03:46.277Z,0
2017-03-09T00:04:55.359Z,0
2017-03-09T00:06:04.427Z,0
2017-03-09T00:07:13.410Z,0
2017-03-09T00:08:22.914Z,0
2017-03-09T00:09:32.313Z,0
2017-03-09T00:10:41.334Z,0
2017-03-09T00:11:50.374Z,0
2017-03-09T00:12:59.348Z,0
2017-03-09T00:14:08.339Z,0
2017-03-09T00:15:17.310Z,0
2017-03-09T00:16:26.292Z,0
2017-03-09T00:17:35.322Z,0
2017-03-09T00:18:44.312Z,0
2017-03-09T00:19:53.298Z,0
2017-03-09T00:21:02.280Z,0
2017-03-09T00:22:11.249Z,0
2017-03-09T00:23:20.357Z,0
2017-03-09T00:24:29.349Z,0
2017-03-09T00:25:38.749Z,0
2017-03-09T00:26:47.730Z,0
2017-03-09T00:27:56.721Z,0
2017-03-09T00:29:05.796Z,0
2017-03-09T00:30:14.863Z,0
2017-03-09T00:31:23.843Z,0
2017-03-09T00:32:32.834Z,0
2017-03-09T00:33:42.244Z,0
2017-03-09T00:34:51.240Z,0
2017-03-09T00:36:00.229Z,0
2017-03-09T00:37:09.320Z,0
2017-03-09T00:38:18.300Z,0
2017-03-09T00:39:27.305Z,0
2017-03-09T00:40:36.297Z,0
2017-03-09T00:41:45.369Z,0
2017-03-09T00:42:54.366Z,0
2017-03-09T00:44:03.354Z,0
2017-03-09T00:45:12.343Z,0
2017-03-09T00:46:21.330Z,0
2017-03-09T00:47:30.314Z,0
2017-03-09T00:48:39.312Z,0
2017-03-09T00:49:48.297Z,0
2017-03-09T00:50:57.358Z,0
2017-03-09T00:52:06.751Z,0
2017-03-09T00:53:15.745Z,0
2017-03-09T00:54:24.722Z,0
2017-03-09T00:55:33.720Z,0
2017-03-09T00:56:42.698Z,0
2017-03-09T00:57:51.715Z,0
2017-03-09T00:59:00.697Z,0
2017-03-09T01:00:09.692Z,0
2017-03-09T01:01:18.772Z,0
2017-03-09T01:02:27.859Z,0
2017-03-09T01:03:36.838Z,0
2017-03-09T01:04:45.919Z,0
2017-03-09T01:05:55.014Z,0
2017-03-09T01:07:04.086Z,0
2017-03-09T01:08:13.112Z,0
2017-03-09T01:09:22.087Z,0
2017-03-09T01:10:31.069Z,0
2017-03-09T01:11:40.063Z,0
2017-03-09T01:12:49.055Z,0
2017-03-09T01:13:58.042Z,0
2017-03-09T01:15:07.066Z,0
2017-03-09T01:16:16.443Z,0
2017-03-09T01:17:25.435Z,0
2017-03-09T01:18:34.500Z,0
2017-03-09T01:19:43.667Z,0
2017-03-09T01:20:52.669Z,0
2017-03-09T01:22:01.654Z,0
2017-03-09T01:23:10.628Z,0
2017-03-09T01:24:19.608Z,0
2017-03-09T01:25:28.769Z,0
2017-03-09T01:26:37.750Z,0
2017-03-09T01:27:46.726Z,0
2017-03-09T01:28:55.718Z,0
2017-03-09T01:30:04.697Z,0
2017-03-09T01:31:13.684Z,0
2017-03-09T01:32:22.668Z,0
2017-03-09T01:33:31.664Z,0
2017-03-09T01:34:40.649Z,0
2017-03-09T01:35:49.636Z,0
2017-03-09T01:36:58.628Z,0
2017-03-09T01:38:07.623Z,0
2017-03-09T01:39:16.619Z,0
2017-03-09T01:40:25.611Z,0
2017-03-09T01:41:34.594Z,0
2017-03-09T01:42:43.570Z,0
2017-03-09T01:43:52.733Z,0
2017-03-09T01:45:01.719Z,0
2017-03-09T01:46:11.136Z,0
2017-03-09T01:47:20.212Z,0
2017-03-09T01:48:29.604Z,0
2017-03-09T01:49:38.598Z,0
2017-03-09T01:50:47.596Z,0
2017-03-09T01:51:56.582Z,0
2017-03-09T01:53:05.575Z,0
2017-03-09T01:54:14.557Z,0
2017-03-09T01:55:23.603Z,0
2017-03-09T01:56:32.794Z,0
2017-03-09T01:57:42.190Z,0
2017-03-09T01:58:51.268Z,0
2017-03-09T02:00:00.282Z,0
2017-03-09T02:01:09.265Z,0
2017-03-09T02:02:18.257Z,0
2017-03-09T02:03:27.341Z,0
2017-03-09T02:04:36.335Z,0
2017-03-09T02:05:45.323Z,0
2017-03-09T02:06:54.363Z,0
2017-03-09T02:08:03.437Z,0
2017-03-09T02:09:12.414Z,0
2017-03-09T02:10:21.485Z,0
2017-03-09T02:11:30.465Z,0
2017-03-09T02:12:39.458Z,0
2017-03-09T02:13:48.432Z,0
2017-03-09T02:14:57.418Z,0
2017-03-09T02:16:06.803Z,0
2017-03-09T02:17:15.806Z,0
2017-03-09T02:18:25.235Z,0
2017-03-09T02:19:34.213Z,0
2017-03-09T02:20:43.355Z,0
2017-03-09T02:21:52.331Z,0
2017-03-09T02:23:01.913Z,0
2017-03-09T02:24:10.910Z,0
2017-03-09T02:25:19.903Z,0
2017-03-09T02:26:28.970Z,0
2017-03-09T02:27:37.956Z,0
2017-03-09T02:28:46.941Z,0
2017-03-09T02:29:55.939Z,0
2017-03-09T02:31:05.103Z,0
2017-03-09T02:32:14.131Z,0
2017-03-09T02:33:23.116Z,0
2017-03-09T02:34:32.096Z,0
2017-03-09T02:35:41.096Z,0
2017-03-09T02:36:50.580Z,0
2017-03-09T02:37:59.552Z,0
2017-03-09T02:39:08.549Z,0
2017-03-09T02:40:17.522Z,0
2017-03-09T02:41:26.972Z,0
2017-03-09T02:42:36.050Z,0
2017-03-09T02:43:45.049Z,0
2017-03-09T02:44:54.029Z,0
2017-03-09T02:46:03.007Z,0
2017-03-09T02:47:11.988Z,0
2017-03-09T02:48:20.971Z,0
2017-03-09T02:49:29.962Z,0
2017-03-09T02:50:38.964Z,0
2017-03-09T02:51:47.953Z,0
2017-03-09T02:52:56.938Z,0
2017-03-09T02:54:05.918Z,0
2017-03-09T02:55:14.905Z,0
2017-03-09T02:56:23.898Z,0
2017-03-09T02:57:32.883Z,0
2017-03-09T02:58:41.871Z,0
2017-03-09T02:59:50.845Z,0
2017-03-09T03:00:59.835Z,0
2017-03-09T03:02:08.824Z,0
2017-03-09T03:03:17.914Z,0
2017-03-09T03:04:26.888Z,0
2017-03-09T03:05:35.949Z,0
2017-03-09T03:06:45.039Z,0
2017-03-09T03:07:54.116Z,0
2017-03-09T03:09:03.112Z,0
2017-03-09T03:10:12.191Z,0
2017-03-09T03:11:21.178Z,0
2017-03-09T03:12:30.183Z,0
2017-03-09T03:13:39.578Z,0
2017-03-09T03:14:48.572Z,0
2017-03-09T03:15:57.696Z,0
2017-03-09T03:17:06.672Z,0
2017-03-09T03:18:15.647Z,0
2017-03-09T03:19:24.626Z,0
2017-03-09T03:20:34.007Z,0
2017-03-09T03:21:42.977Z,0
2017-03-09T03:22:51.963Z,0
2017-03-09T03:24:00.936Z,0
2017-03-09T03:25:09.981Z,0
2017-03-09T03:26:18.979Z,0
2017-03-09T03:27:27.971Z,0
2017-03-09T03:28:37.073Z,0
2017-03-09T03:29:46.041Z,0
2017-03-09T03:30:55.133Z,0
2017-03-09T03:32:04.201Z,0
2017-03-09T03:33:13.194Z,0
2017-03-09T03:34:22.593Z,0
2017-03-09T03:35:31.572Z,0
2017-03-09T03:36:40.723Z,0
2017-03-09T03:37:49.799Z,0
2017-03-09T03:38:58.811Z,0
2017-03-09T03:40:07.784Z,0
2017-03-09T03:41:16.875Z,0
2017-03-09T03:42:25.864Z,0
2017-03-09T03:43:34.847Z,0
2017-03-09T03:44:43.839Z,0
2017-03-09T03:45:52.838Z,0
2017-03-09T03:47:01.827Z,0
2017-03-09T03:48:11.651Z,0
2017-03-09T03:49:20.721Z,0
2017-03-09T03:50:29.790Z,0
2017-03-09T03:51:38.760Z,0
2017-03-09T03:52:47.751Z,0
2017-03-09T03:53:56.819Z,0
2017-03-09T03:55:05.814Z,0
2017-03-09T03:56:14.796Z,0
2017-03-09T03:57:23.862Z,0
2017-03-09T03:58:32.840Z,0
2017-03-09T03:59:41.922Z,0
2017-03-09T04:00:50.904Z,0
2017-03-09T04:01:59.909Z,0
2017-03-09T04:03:08.977Z,0
2017-03-09T04:04:17.961Z,0
2017-03-09T04:05:26.937Z,0
2017-03-09T04:06:36.022Z,0
2017-03-09T04:07:45.887Z,0
2017-03-09T04:08:54.956Z,0
2017-03-09T04:10:03.955Z,0
2017-03-09T04:11:13.356Z,0
2017-03-09T04:12:23.105Z,0
2017-03-09T04:13:32.180Z,0
2017-03-09T04:14:41.160Z,0
2017-03-09T04:15:50.155Z,0
2017-03-09T04:16:59.134Z,0
2017-03-09T04:18:08.118Z,0
2017-03-09T04:19:17.148Z,0
2017-03-09T04:20:26.139Z,0
2017-03-09T04:21:35.120Z,0
2017-03-09T04:22:44.108Z,0
2017-03-09T04:23:53.211Z,0
2017-03-09T04:25:02.286Z,0
2017-03-09T04:26:11.274Z,0
2017-03-09T04:27:20.254Z,0
2017-03-09T04:28:29.938Z,0
2017-03-09T04:29:39.739Z,0
2017-03-09T04:30:48.793Z,0
2017-03-09T04:31:57.791Z,0
2017-03-09T04:33:06.866Z,0
2017-03-09T04:34:16.175Z,0
2017-03-09T04:35:25.160Z,0
2017-03-09T04:36:34.244Z,0
2017-03-09T04:37:43.251Z,0
2017-03-09T04:38:52.225Z,0
2017-03-09T04:40:01.609Z,0
2017-03-09T04:41:11.014Z,0
2017-03-09T04:42:19.997Z,0
2017-03-09T04:43:29.376Z,0
2017-03-09T04:44:38.464Z,0
2017-03-09T04:45:47.477Z,0
2017-03-09T04:46:56.461Z,0
2017-03-09T04:48:06.161Z,0
2017-03-09T04:49:15.141Z,0
2017-03-09T04:50:24.134Z,0
2017-03-09T04:51:33.109Z,0
2017-03-09T04:52:42.084Z,0
2017-03-09T04:53:51.477Z,0
2017-03-09T04:55:00.872Z,0
2017-03-09T04:56:10.350Z,0
2017-03-09T04:57:19.332Z,0
2017-03-09T04:58:28.428Z,0
2017-03-09T04:59:37.396Z,0
2017-03-09T05:00:46.374Z,0
2017-03-09T05:01:55.436Z,0
2017-03-09T05:03:04.428Z,0
2017-03-09T05:04:13.503Z,0
2017-03-09T05:05:22.482Z,0
2017-03-09T05:06:32.212Z,0
2017-03-09T05:07:41.199Z,0
2017-03-09T05:08:50.180Z,0
2017-03-09T05:09:59.180Z,0
2017-03-09T05:11:08.176Z,0
2017-03-09T05:12:17.162Z,0
2017-03-09T05:13:26.147Z,0
2017-03-09T05:14:35.133Z,4
2017-03-09T05:15:44.106Z,4
2017-03-09T05:16:53.084Z,0
2017-03-09T05:18:02.076Z,0
2017-03-09T05:19:11.484Z,4
2017-03-09T05:20:20.560Z,4
2017-03-09T05:21:29.544Z,4
2017-03-09T05:22:38.653Z,4
2017-03-09T05:23:47.660Z,4
2017-03-09T05:24:56.654Z,8
2017-03-09T05:26:05.642Z,4
2017-03-09T05:27:14.629Z,12
2017-03-09T05:28:24.076Z,12
2017-03-09T05:29:33.139Z,16
2017-03-09T05:30:42.125Z,12
2017-03-09T05:31:51.110Z,16
2017-03-09T05:33:00.137Z,12
2017-03-09T05:34:09.110Z,16
2017-03-09T05:35:18.203Z,20
2017-03-09T05:36:27.192Z,24
2017-03-09T05:37:36.179Z,24
2017-03-09T05:38:45.152Z,24
2017-03-09T05:39:54.132Z,28
2017-03-09T05:41:03.128Z,24
2017-03-09T05:42:12.112Z,28
2017-03-09T05:43:21.109Z,36
2017-03-09T05:44:30.498Z,40
2017-03-09T05:45:39.626Z,48
2017-03-09T05:46:48.606Z,48
2017-03-09T05:47:57.603Z,48
2017-03-09T05:49:07.087Z,44
2017-03-09T05:50:16.064Z,52
2017-03-09T05:51:25.047Z,48
2017-03-09T05:52:34.035Z,68
2017-03-09T05:53:43.017Z,68
2017-03-09T05:54:51.998Z,80
2017-03-09T05:56:01.159Z,96
2017-03-09T05:57:10.145Z,88
2017-03-09T05:58:19.159Z,88
2017-03-09T05:59:28.145Z,88
2017-03-09T06:00:37.137Z,92
2017-03-09T06:01:46.126Z,100
2017-03-09T06:02:55.111Z,92
2017-03-09T06:04:04.901Z,100
2017-03-09T06:05:13.882Z,104
2017-03-09T06:06:22.871Z,88
2017-03-09T06:07:31.842Z,116
2017-03-09T06:08:40.822Z,132
2017-03-09T06:09:49.789Z,132
2017-03-09T06:10:58.794Z,132
2017-03-09T06:12:07.945Z,144
2017-03-09T06:13:16.924Z,136
2017-03-09T06:14:25.946Z,140
2017-03-09T06:15:34.932Z,136
2017-03-09T06:16:43.953Z,112
2017-03-09T06:17:52.929Z,168
2017-03-09T06:19:02.015Z,180
2017-03-09T06:20:11.033Z,168
2017-03-09T06:21:20.064Z,172
2017-03-09T06:22:29.463Z,180
2017-03-09T06:23:38.438Z,168
2017-03-09T06:24:47.416Z,172
2017-03-09T06:25:56.475Z,192
2017-03-09T06:27:05.453Z,208
2017-03-09T06:28:14.447Z,216
2017-03-09T06:29:23.440Z,232
2017-03-09T06:30:32.432Z,208
2017-03-09T06:31:41.447Z,236
2017-03-09T06:32:50.557Z,224
2017-03-09T06:33:59.532Z,244
2017-03-09T06:35:08.927Z,244
2017-03-09T06:36:18.334Z,256
2017-03-09T06:37:27.376Z,260
2017-03-09T06:38:36.362Z,272
2017-03-09T06:39:45.339Z,288
2017-03-09T06:40:54.337Z,276
2017-03-09T06:42:03.322Z,256
2017-03-09T06:43:12.389Z,232
2017-03-09T06:44:21.400Z,248
2017-03-09T06:45:30.373Z,272
2017-03-09T06:46:39.379Z,284
2017-03-09T06:47:48.357Z,296
2017-03-09T06:48:57.332Z,284
2017-03-09T06:50:06.749Z,304
2017-03-09T06:51:16.304Z,328
2017-03-09T06:52:25.292Z,340
2017-03-09T06:53:34.276Z,332
2017-03-09T06:54:43.300Z,320
2017-03-09T06:55:52.274Z,360
2017-03-09T06:57:01.355Z,360
2017-03-09T06:58:10.419Z,376
2017-03-09T06:59:19.395Z,420
2017-03-09T07:00:28.461Z,396
2017-03-09T07:01:37.446Z,396
2017-03-09T07:02:46.853Z,388
2017-03-09T07:03:55.837Z,372
2017-03-09T07:05:04.821Z,396
2017-03-09T07:06:13.899Z,380
2017-03-09T07:07:22.881Z,420
2017-03-09T07:08:31.965Z,464
2017-03-09T07:09:41.052Z,476
2017-03-09T07:10:50.031Z,548
2017-03-09T07:11:59.056Z,556
2017-03-09T07:13:08.043Z,524
2017-03-09T07:14:17.023Z,552
2017-03-09T07:15:26.021Z,580
2017-03-09T07:16:35.117Z,540
2017-03-09T07:17:44.105Z,644
2017-03-09T07:18:53.106Z,700
2017-03-09T07:20:02.098Z,700
2017-03-09T07:21:11.104Z,752
2017-03-09T07:22:20.087Z,756
2017-03-09T07:23:29.138Z,792
2017-03-09T07:24:38.125Z,816
2017-03-09T07:25:47.108Z,876
2017-03-09T07:26:56.175Z,948
2017-03-09T07:28:05.174Z,928
2017-03-09T07:29:14.202Z,1060
2017-03-09T07:30:23.193Z,1200
2017-03-09T07:31:32.258Z,1364
2017-03-09T07:32:41.251Z,1356
2017-03-09T07:33:50.336Z,1360
2017-03-09T07:34:59.319Z,1324
2017-03-09T07:36:08.699Z,1348
2017-03-09T07:37:17.719Z,1444
2017-03-09T07:38:26.797Z,1652
2017-03-09T07:39:35.872Z,1744
2017-03-09T07:40:44.855Z,1868
2017-03-09T07:41:53.833Z,1932
2017-03-09T07:43:02.809Z,1892
2017-03-09T07:44:11.791Z,1780
2017-03-09T07:45:20.789Z,1640
2017-03-09T07:46:29.820Z,1900
2017-03-09T07:47:38.800Z,2232
2017-03-09T07:48:47.774Z,2136
2017-03-09T07:49:56.759Z,1976
2017-03-09T07:51:05.784Z,2044
2017-03-09T07:52:14.767Z,1724
2017-03-09T07:53:23.750Z,1552
2017-03-09T07:54:32.808Z,1712
2017-03-09T07:55:41.803Z,1948
2017-03-09T07:56:50.781Z,1816
2017-03-09T07:57:59.761Z,1644
2017-03-09T07:59:08.750Z,1672
2017-03-09T08:00:17.733Z,1928
2017-03-09T08:01:27.137Z,2248
2017-03-09T08:02:36.125Z,2532
2017-03-09T08:03:45.130Z,2476
2017-03-09T08:04:54.117Z,2580
2017-03-09T08:06:03.198Z,2408
2017-03-09T08:07:12.218Z,2628
2017-03-09T08:08:21.283Z,3288
2017-03-09T08:09:30.284Z,3340
2017-03-09T08:10:39.269Z,2776
2017-03-09T08:11:48.254Z,2812
2017-03-09T08:12:57.229Z,2792
2017-03-09T08:14:06.310Z,2504
2017-03-09T08:15:15.280Z,2304
2017-03-09T08:16:24.342Z,2308
2017-03-09T08:17:33.340Z,2308
2017-03-09T08:18:42.324Z,2648
2017-03-09T08:19:51.324Z,2768
2017-03-09T08:21:00.296Z,2976
2017-03-09T08:22:09.379Z,3464
2017-03-09T08:23:18.846Z,3612
2017-03-09T08:24:27.927Z,3396
2017-03-09T08:25:36.901Z,2892
2017-03-09T08:26:46.036Z,2692
2017-03-09T08:27:55.119Z,2188
2017-03-09T08:29:04.133Z,2972
2017-03-09T08:30:13.117Z,3208
2017-03-09T08:31:22.111Z,3348
2017-03-09T08:32:31.144Z,3204
2017-03-09T08:33:40.143Z,3204
2017-03-09T08:34:49.206Z,3004
2017-03-09T08:35:58.284Z,2756
2017-03-09T08:37:07.263Z,2260
2017-03-09T08:39:25.204Z,2420
2017-03-09T08:43:19.348Z,2780
2017-03-09T08:44:28.388Z,2976
2017-03-09T08:45:37.430Z,3052
2017-03-09T08:46:46.443Z,3520
2017-03-09T08:47:55.471Z,3796
2017-03-09T08:49:04.550Z,3708
2017-03-09T08:50:13.549Z,3740
2017-03-09T08:51:22.532Z,3084
2017-03-09T08:52:32.046Z,3112
2017-03-09T08:53:41.084Z,2692
2017-03-09T08:54:50.162Z,2852
2017-03-09T08:55:59.247Z,3188
2017-03-09T08:57:08.637Z,3240
2017-03-09T08:58:17.638Z,3580
2017-03-09T08:59:26.628Z,4048
2017-03-09T09:00:35.659Z,4232
2017-03-09T09:01:44.633Z,4252
2017-03-09T09:02:53.641Z,3496
2017-03-09T09:04:02.721Z,3516
2017-03-09T09:05:11.724Z,3652
2017-03-09T09:06:20.750Z,4272
2017-03-09T09:07:29.737Z,5080
2017-03-09T09:08:38.713Z,4632
2017-03-09T09:09:47.700Z,4784
2017-03-09T09:10:56.758Z,5240
2017-03-09T09:12:05.746Z,5044
2017-03-09T09:13:14.737Z,4820
2017-03-09T09:14:23.731Z,4332
2017-03-09T09:15:32.801Z,4228
2017-03-09T09:16:41.806Z,3640
2017-03-09T09:17:50.794Z,3456
2017-03-09T09:18:59.794Z,3084
2017-03-09T09:20:08.888Z,3356
2017-03-09T09:21:17.873Z,2892
2017-03-09T09:22:26.975Z,3460
2017-03-09T09:23:35.997Z,3252
2017-03-09T09:24:44.991Z,2328
2017-03-09T09:25:53.984Z,2100
2017-03-09T09:27:03.060Z,1976
2017-03-09T09:28:12.462Z,1828
2017-03-09T09:29:21.485Z,1860
2017-03-09T09:30:30.485Z,2052
2017-03-09T09:31:39.474Z,3036
2017-03-09T09:32:48.469Z,3568
2017-03-09T09:33:57.459Z,3360
2017-03-09T09:35:06.873Z,3132
2017-03-09T09:36:15.852Z,3696
2017-03-09T09:37:24.831Z,3840
2017-03-09T09:38:33.893Z,3544
2017-03-09T09:39:42.883Z,2672
2017-03-09T09:40:51.856Z,2952
2017-03-09T09:42:00.863Z,3316
2017-03-09T09:43:09.939Z,3528
2017-03-09T09:44:18.933Z,3408
2017-03-09T09:45:27.943Z,2972
2017-03-09T09:46:36.927Z,3448
2017-03-09T09:47:45.915Z,4072
2017-03-09T09:48:54.900Z,4360
2017-03-09T09:50:03.884Z,4184
2017-03-09T09:51:12.857Z,4204
2017-03-09T09:52:21.844Z,4520
2017-03-09T09:53:30.850Z,4504
2017-03-09T09:54:39.861Z,4296
2017-03-09T09:55:48.880Z,4200
2017-03-09T09:56:57.855Z,4360
2017-03-09T09:58:06.851Z,5424
2017-03-09T09:59:15.839Z,5248
2017-03-09T10:00:24.900Z,3756
2017-03-09T10:01:33.887Z,3504
2017-03-09T10:02:42.889Z,4012
2017-03-09T10:03:51.920Z,3944
2017-03-09T10:05:00.904Z,3144
2017-03-09T10:06:09.902Z,2780
2017-03-09T10:07:18.890Z,2528
2017-03-09T10:08:27.870Z,2392
2017-03-09T10:09:36.903Z,2516
2017-03-09T10:10:45.896Z,2812
2017-03-09T10:11:54.893Z,2792
2017-03-09T10:13:03.893Z,2252
2017-03-09T10:14:12.970Z,2316
2017-03-09T10:15:22.408Z,2696
2017-03-09T10:16:31.433Z,3512
2017-03-09T10:17:40.494Z,4824
2017-03-09T10:18:49.478Z,5240
2017-03-09T10:19:58.466Z,5188
2017-03-09T10:21:07.513Z,5112
2017-03-09T10:22:16.517Z,4952
2017-03-09T10:23:25.510Z,5236
2017-03-09T10:24:34.508Z,5296
2017-03-09T10:25:43.497Z,5016
2017-03-09T10:26:52.486Z,4584
2017-03-09T10:28:01.485Z,4204
2017-03-09T10:29:10.478Z,3904
2017-03-09T10:30:19.571Z,3756
2017-03-09T10:31:28.645Z,2848
2017-03-09T10:32:37.761Z,2668
2017-03-09T10:33:46.750Z,2824
2017-03-09T10:34:55.768Z,2380
2017-03-09T10:36:04.751Z,1996
2017-03-09T10:37:13.736Z,1684
2017-03-09T10:38:22.788Z,1524
2017-03-09T10:39:31.767Z,1476
2017-03-09T10:40:40.779Z,1516
2017-03-09T10:41:49.771Z,1552
2017-03-09T10:42:58.753Z,1764
2017-03-09T10:44:07.741Z,2152
2017-03-09T10:45:16.732Z,2712
2017-03-09T10:46:25.824Z,3180
2017-03-09T10:47:34.915Z,4004
2017-03-09T10:48:43.906Z,4240
2017-03-09T10:49:52.888Z,4504
2017-03-09T10:51:01.878Z,4920
2017-03-09T10:52:10.871Z,4696
2017-03-09T10:53:19.872Z,4012
2017-03-09T10:54:28.944Z,4004
2017-03-09T10:55:37.931Z,4064
2017-03-09T10:56:46.912Z,3852
2017-03-09T10:57:55.909Z,4012
2017-03-09T10:59:05.313Z,3748
2017-03-09T11:00:14.295Z,3200
2017-03-09T11:01:23.284Z,2872
2017-03-09T11:02:32.282Z,2632
2017-03-09T11:03:41.276Z,2600
2017-03-09T11:04:50.368Z,2812
2017-03-09T11:05:59.571Z,3140
2017-03-09T11:07:08.569Z,3472
2017-03-09T11:08:17.563Z,3696
2017-03-09T11:09:26.624Z,3472
2017-03-09T11:10:35.696Z,3240
2017-03-09T11:11:44.672Z,3368
2017-03-09T11:12:54.117Z,3304
2017-03-09T11:14:03.102Z,3320
2017-03-09T11:15:12.087Z,3540
2017-03-09T11:16:21.492Z,3404
2017-03-09T11:17:30.491Z,3332
2017-03-09T11:18:39.486Z,3468
2017-03-09T11:19:48.505Z,3628
2017-03-09T11:20:57.582Z,3876
2017-03-09T11:22:06.681Z,4172
2017-03-09T11:23:15.678Z,4412
2017-03-09T11:24:24.708Z,4392
2017-03-09T11:25:33.686Z,4420
2017-03-09T11:26:42.666Z,4472
2017-03-09T11:27:51.653Z,4512
2017-03-09T11:29:01.044Z,4572
2017-03-09T11:30:10.099Z,4656
2017-03-09T11:31:19.219Z,4716
2017-03-09T11:32:28.210Z,4656
2017-03-09T11:33:37.197Z,4556
2017-03-09T11:34:46.177Z,4440
2017-03-09T11:35:55.167Z,4376
2017-03-09T11:37:04.174Z,4472
2017-03-09T11:38:13.177Z,4780
2017-03-09T11:39:22.152Z,5236
2017-03-09T11:40:31.138Z,5396
2017-03-09T11:41:40.168Z,5612
2017-03-09T11:42:49.166Z,5708
2017-03-09T11:43:58.173Z,5596
2017-03-09T11:45:07.175Z,5124
2017-03-09T11:46:16.166Z,4676
2017-03-09T11:47:25.150Z,4360
2017-03-09T11:48:34.142Z,3984
2017-03-09T11:49:43.144Z,3784
2017-03-09T11:50:52.549Z,3600
2017-03-09T11:52:01.526Z,3752
2017-03-09T11:53:10.519Z,4044
2017-03-09T11:54:19.922Z,3956
2017-03-09T11:55:28.915Z,3896
2017-03-09T11:56:37.896Z,3728
2017-03-09T11:57:46.974Z,3632
2017-03-09T11:58:56.048Z,3520
2017-03-09T12:00:05.044Z,3372
2017-03-09T12:01:14.110Z,3296
2017-03-09T12:02:23.186Z,3412
2017-03-09T12:03:32.599Z,3376
2017-03-09T12:04:41.627Z,3564
2017-03-09T12:05:50.611Z,3608
2017-03-09T12:06:59.613Z,3600
2017-03-09T12:08:08.598Z,3612
2017-03-09T12:09:17.682Z,3428
2017-03-09T12:10:26.700Z,3496
2017-03-09T12:11:35.691Z,3548
2017-03-09T12:12:44.679Z,3608
2017-03-09T12:13:53.674Z,3700
2017-03-09T12:15:02.674Z,3808
2017-03-09T12:16:11.719Z,3972
2017-03-09T12:17:20.733Z,4196
2017-03-09T12:18:29.716Z,4336
2017-03-09T12:19:38.692Z,4264
2017-03-09T12:20:47.675Z,4052
2017-03-09T12:21:56.657Z,3884
2017-03-09T12:23:05.659Z,3968
2017-03-09T12:24:14.725Z,4316
2017-03-09T12:25:23.714Z,4560
2017-03-09T12:26:32.718Z,4680
2017-03-09T12:27:41.716Z,4736
2017-03-09T12:28:50.708Z,4700
2017-03-09T12:29:59.700Z,4420
2017-03-09T12:31:08.709Z,4308
2017-03-09T12:32:17.784Z,4356
2017-03-09T12:33:26.827Z,4448
2017-03-09T12:34:35.829Z,4468
2017-03-09T12:35:44.823Z,4508
2017-03-09T12:36:53.817Z,4476
2017-03-09T12:38:02.809Z,4528
2017-03-09T12:39:12.013Z,4388
2017-03-09T12:40:21.109Z,4312
2017-03-09T12:41:30.103Z,4260
2017-03-09T12:42:39.092Z,4120
2017-03-09T12:43:48.077Z,4176
2017-03-09T12:44:57.064Z,4132
2017-03-09T12:46:06.477Z,4132
2017-03-09T12:47:15.557Z,4112
2017-03-09T12:48:24.540Z,4120
2017-03-09T12:49:33.544Z,3944
2017-03-09T12:50:42.523Z,3624
2017-03-09T12:51:51.928Z,3188
2017-03-09T12:53:00.914Z,2972
2017-03-09T12:54:10.124Z,2808
2017-03-09T12:55:19.135Z,2600
2017-03-09T12:56:28.407Z,2628
2017-03-09T12:57:37.394Z,2548
2017-03-09T12:58:46.394Z,2524
2017-03-09T12:59:55.807Z,2524
2017-03-09T13:01:04.794Z,2632
2017-03-09T13:02:13.866Z,2860
2017-03-09T13:03:22.900Z,3088
2017-03-09T13:04:31.998Z,3312
2017-03-09T13:05:41.016Z,3508
2017-03-09T13:06:50.016Z,3644
2017-03-09T13:07:59.451Z,3772
2017-03-09T13:09:08.496Z,3856
2017-03-09T13:10:17.479Z,3880
2017-03-09T13:11:26.502Z,3852
2017-03-09T13:12:35.498Z,3816
2017-03-09T13:13:44.544Z,3848
2017-03-09T13:14:53.525Z,3876
2017-03-09T13:16:02.505Z,3880
2017-03-09T13:17:11.586Z,3776
2017-03-09T13:18:20.573Z,3524
2017-03-09T13:19:30.025Z,3348
2017-03-09T13:20:39.026Z,3348
2017-03-09T13:21:48.107Z,3376
2017-03-09T13:22:57.504Z,3368
2017-03-09T13:24:06.567Z,3296
2017-03-09T13:25:15.660Z,3200
2017-03-09T13:26:24.787Z,3092
2017-03-09T13:27:34.199Z,3016
2017-03-09T13:28:43.363Z,2944
2017-03-09T13:29:52.352Z,2868
2017-03-09T13:31:01.388Z,2804
2017-03-09T13:32:11.415Z,2744
2017-03-09T13:33:20.574Z,2712
2017-03-09T13:34:29.583Z,2704
2017-03-09T13:35:38.726Z,2764
2017-03-09T13:36:47.833Z,2836
2017-03-09T13:37:56.873Z,2952
2017-03-09T13:39:07.683Z,3152
2017-03-09T13:40:16.685Z,3464
2017-03-09T13:41:25.759Z,3796
2017-03-09T13:42:34.968Z,4072
2017-03-09T13:43:43.959Z,4192
2017-03-09T13:44:52.942Z,4264
2017-03-09T13:46:02.036Z,4332
2017-03-09T13:47:11.047Z,4284
2017-03-09T13:48:20.091Z,4080
2017-03-09T13:49:29.126Z,3804
2017-03-09T13:50:38.286Z,3532
2017-03-09T13:51:47.771Z,3328
2017-03-09T13:52:56.767Z,3120
2017-03-09T13:54:05.812Z,2940
2017-03-09T13:55:14.814Z,2904
2017-03-09T13:56:23.811Z,2948
2017-03-09T13:57:32.834Z,3060
2017-03-09T13:58:41.898Z,3228
2017-03-09T13:59:53.337Z,3004
2017-03-09T14:01:03.215Z,2976
2017-03-09T14:02:23.100Z,3108
2017-03-09T14:03:51.504Z,3424
2017-03-09T14:05:06.595Z,3088
2017-03-09T14:06:16.515Z,2652
2017-03-09T14:07:25.528Z,2400
2017-03-09T14:08:34.710Z,2384
2017-03-09T14:09:43.693Z,2360
2017-03-09T14:10:52.789Z,1916
2017-03-09T14:12:01.795Z,1740
2017-03-09T14:13:10.792Z,1660
2017-03-09T14:14:19.872Z,1444
2017-03-09T14:15:28.870Z,1276
2017-03-09T14:16:37.999Z,1216
2017-03-09T14:17:47.069Z,1184
2017-03-09T14:18:56.152Z,1204
2017-03-09T14:20:05.139Z,1244
2017-03-09T14:21:14.220Z,1508
2017-03-09T14:22:23.219Z,1460
2017-03-09T14:23:32.213Z,1676
2017-03-09T14:24:41.290Z,1784
2017-03-09T14:25:50.274Z,1896
2017-03-09T14:26:59.260Z,1728
2017-03-09T14:28:08.293Z,1620
2017-03-09T14:29:17.313Z,1560
2017-03-09T14:30:26.392Z,1496
2017-03-09T14:31:35.386Z,1460
2017-03-09T14:32:44.382Z,1508
2017-03-09T14:33:53.378Z,1320
2017-03-09T14:35:02.366Z,1088
2017-03-09T14:36:11.378Z,920
2017-03-09T14:37:20.369Z,784
2017-03-09T14:38:29.788Z,708
2017-03-09T14:39:38.927Z,652
2017-03-09T14:40:47.926Z,640
2017-03-09T14:41:56.902Z,628
2017-03-09T14:43:05.954Z,640
2017-03-09T14:44:15.511Z,680
2017-03-09T14:45:24.629Z,792
2017-03-09T14:46:33.683Z,1044
2017-03-09T14:47:42.763Z,1252
2017-03-09T14:48:51.772Z,1480
2017-03-09T14:50:00.858Z,1640
2017-03-09T14:51:09.842Z,1712
2017-03-09T14:52:19.242Z,1812
2017-03-09T14:53:28.240Z,1964
2017-03-09T14:54:37.236Z,2148
2017-03-09T14:55:46.234Z,2440
2017-03-09T14:56:55.235Z,2716
2017-03-09T14:58:04.327Z,2748
2017-03-09T14:59:13.320Z,2668
2017-03-09T15:00:22.405Z,2500
2017-03-09T15:01:31.419Z,2368
2017-03-09T15:02:40.453Z,2212
2017-03-09T15:03:49.450Z,2080
2017-03-09T15:04:58.437Z,2136
2017-03-09T15:06:07.421Z,2084
2017-03-09T15:07:16.411Z,1992
2017-03-09T15:08:25.555Z,1764
2017-03-09T15:09:34.561Z,1580
2017-03-09T15:10:43.960Z,1556
2017-03-09T15:11:52.973Z,1580
2017-03-09T15:13:02.365Z,1772
2017-03-09T15:14:11.384Z,1876
2017-03-09T15:15:20.503Z,1824
2017-03-09T15:16:30.060Z,1584
2017-03-09T15:17:39.409Z,1440
2017-03-09T15:18:50.087Z,1340
2017-03-09T15:20:02.137Z,1240
2017-03-09T15:21:11.619Z,1128
2017-03-09T15:22:20.798Z,1040
2017-03-09T15:23:30.088Z,948
2017-03-09T15:24:39.111Z,848
2017-03-09T15:25:48.094Z,752
2017-03-09T15:26:57.576Z,688
2017-03-09T15:28:06.789Z,652
2017-03-09T15:29:15.785Z,624
2017-03-09T15:30:25.811Z,620
2017-03-09T15:31:34.962Z,616
2017-03-09T15:32:44.060Z,596
2017-03-09T15:33:53.213Z,532
2017-03-09T15:35:02.215Z,480
2017-03-09T15:36:11.223Z,440
2017-03-09T15:37:20.223Z,420
2017-03-09T15:38:29.619Z,408
2017-03-09T15:39:38.621Z,396
2017-03-09T15:40:47.615Z,400
2017-03-09T15:41:56.790Z,416
2017-03-09T15:43:06.003Z,408
2017-03-09T15:44:15.384Z,396
2017-03-09T15:45:24.436Z,388
2017-03-09T15:46:34.200Z,380
2017-03-09T15:47:43.253Z,376
2017-03-09T15:48:52.449Z,380
2017-03-09T15:50:01.594Z,428
2017-03-09T15:51:11.000Z,488
2017-03-09T15:52:20.221Z,536
2017-03-09T15:53:29.347Z,564
2017-03-09T15:54:38.553Z,596
2017-03-09T15:55:47.544Z,624
2017-03-09T15:56:56.605Z,636
2017-03-09T15:58:05.608Z,644
2017-03-09T15:59:14.696Z,656
2017-03-09T16:00:23.677Z,676
2017-03-09T16:01:32.700Z,672
2017-03-09T16:02:41.691Z,644